createdAt,value
2022-11-04T00:00:28.646Z,9.70
2022-11-04T00:03:00.397Z,9.90
2022-11-04T00:05:28.915Z,9.80
2022-11-04T00:08:15.664Z,10.30
2022-11-04T00:11:02.983Z,10.20
2022-11-04T00:13:31.222Z,10.20
2022-11-04T00:16:21.630Z,10.00
2022-11-04T00:18:50.821Z,8.90
2022-11-04T00:21:38.386Z,10.10
2022-11-04T00:24:27.303Z,10.50
2022-11-04T00:27:14.928Z,9.80
2022-11-04T00:29:43.618Z,9.60
2022-11-04T00:32:31.246Z,9.20
2022-11-04T00:34:59.685Z,8.70
2022-11-04T00:37:28.315Z,8.80
2022-11-04T00:39:56.687Z,8.50
2022-11-04T00:42:24.962Z,8.00
2022-11-04T00:44:53.547Z,8.00
2022-11-04T00:47:21.996Z,7.00
2022-11-04T00:49:50.610Z,8.00
2022-11-04T00:52:19.604Z,7.60
2022-11-04T00:54:48.287Z,7.80
2022-11-04T00:57:16.798Z,7.30
2022-11-04T00:59:45.895Z,7.00
2022-11-04T01:02:14.468Z,7.10
2022-11-04T01:04:42.731Z,7.30
2022-11-04T01:07:11.100Z,7.20
2022-11-04T01:09:39.481Z,6.10
2022-11-04T01:12:07.962Z,6.80
2022-11-04T01:14:36.338Z,6.30
2022-11-04T01:17:04.900Z,6.60
2022-11-04T01:19:33.405Z,6.10
2022-11-04T01:22:01.696Z,6.20
2022-11-04T01:24:30.058Z,5.40
2022-11-04T01:26:58.642Z,6.40
2022-11-04T01:29:27.047Z,6.50
2022-11-04T01:31:55.294Z,7.50
2022-11-04T01:34:23.710Z,7.40
2022-11-04T01:36:52.248Z,6.70
2022-11-04T01:39:20.414Z,7.70
2022-11-04T01:41:48.603Z,6.90
2022-11-04T01:44:42.117Z,7.30
2022-11-04T01:47:16.796Z,7.50
2022-11-04T01:49:49.351Z,6.30
2022-11-04T01:52:27.478Z,5.90
2022-11-04T01:54:59.850Z,5.90
2022-11-04T01:57:40.824Z,6.80
2022-11-04T02:00:10.541Z,7.50
2022-11-04T02:05:31.150Z,6.40
2022-11-04T02:08:03.047Z,5.80
2022-11-04T02:10:32.923Z,6.90
2022-11-04T02:13:05.896Z,7.30
2022-11-04T02:16:12.486Z,6.70
2022-11-04T02:19:18.648Z,6.30
2022-11-04T02:22:26.324Z,6.30
2022-11-04T02:25:08.665Z,6.50
2022-11-04T02:28:05.605Z,6.30
2022-11-04T02:30:42.353Z,7.00
2022-11-04T02:33:30.928Z,5.90
2022-11-04T02:36:06.181Z,6.00
2022-11-04T02:38:49.904Z,6.60
2022-11-04T02:41:27.152Z,6.80
2022-11-04T02:44:16.855Z,6.70
2022-11-04T02:46:57.429Z,6.90
2022-11-04T02:49:48.033Z,5.90
2022-11-04T02:52:23.836Z,7.30
2022-11-04T02:55:00.869Z,6.20
2022-11-04T02:57:36.322Z,6.40
2022-11-04T03:00:06.429Z,6.30
2022-11-04T03:02:40.704Z,5.60
2022-11-04T03:05:16.404Z,6.60
2022-11-04T03:07:47.997Z,5.90
2022-11-04T03:10:21.141Z,5.30
2022-11-04T03:13:02.369Z,5.60
2022-11-04T03:15:36.430Z,6.50
2022-11-04T03:18:28.261Z,5.90
2022-11-04T03:21:00.633Z,5.70
2022-11-04T03:23:29.719Z,6.30
2022-11-04T03:26:09.067Z,5.50
2022-11-04T03:29:03.347Z,5.90
2022-11-04T03:31:49.952Z,6.70
2022-11-04T03:34:18.559Z,6.40
2022-11-04T03:36:46.887Z,5.90
2022-11-04T03:39:15.496Z,6.20
2022-11-04T03:41:57.192Z,6.70
2022-11-04T03:44:26.283Z,6.30
2022-11-04T03:46:54.973Z,5.30
2022-11-04T03:49:24.878Z,5.80
2022-11-04T03:51:53.673Z,5.90
2022-11-04T03:54:22.464Z,5.30
2022-11-04T03:57:01.911Z,5.80
2022-11-04T03:59:45.660Z,6.20
2022-11-04T04:02:19.633Z,5.50
2022-11-04T04:05:01.369Z,5.70
2022-11-04T15:06:54.740Z,9.00
2022-11-04T15:09:26.880Z,8.10
2022-11-04T15:12:46.557Z,9.00
2022-11-04T15:15:31.973Z,7.80
2022-11-04T15:18:15.473Z,7.80
2022-11-04T15:20:56.851Z,8.30
2022-11-04T15:23:31.697Z,8.20
2022-11-04T15:26:02.408Z,8.30
2022-11-04T15:28:35.224Z,8.70
2022-11-04T15:31:16.925Z,8.90
2022-11-04T15:33:51.097Z,9.70
2022-11-04T15:36:24.483Z,9.10
2022-11-04T15:38:58.162Z,9.10
2022-11-04T15:41:47.568Z,9.60
2022-11-04T15:44:23.693Z,9.00
2022-11-04T15:46:54.668Z,9.80
2022-11-04T15:49:28.432Z,9.00
2022-11-04T15:52:00.804Z,8.40
2022-11-04T15:54:33.627Z,8.20
2022-11-04T15:57:31.959Z,8.90
2022-11-04T16:00:07.154Z,8.90
2022-11-04T16:02:48.222Z,8.50
2022-11-04T16:05:16.499Z,8.30
2022-11-04T16:07:47.291Z,8.30
2022-11-04T16:10:30.474Z,8.20
2022-11-04T16:13:01.541Z,7.80
2022-11-04T16:15:31.093Z,7.80
2022-11-04T16:17:59.697Z,7.90
2022-11-04T16:20:28.257Z,7.00
2022-11-04T16:23:00.263Z,6.30
2022-11-04T16:25:35.412Z,6.10
2022-11-04T16:28:04.157Z,6.00
2022-11-04T16:30:32.500Z,5.90
2022-11-04T16:33:17.863Z,6.50
2022-11-04T16:35:45.996Z,5.70
2022-11-04T16:38:14.298Z,6.40
2022-11-04T16:40:45.856Z,5.70
2022-11-04T16:43:18.849Z,6.40
2022-11-04T16:45:53.838Z,6.50
2022-11-04T16:48:24.782Z,6.30
2022-11-04T16:50:53.149Z,6.20
2022-11-04T16:53:21.428Z,6.50
2022-11-04T16:55:57.942Z,5.90
2022-11-04T16:58:26.168Z,6.00
2022-11-04T17:00:54.819Z,6.00
2022-11-04T17:03:23.235Z,7.10
2022-11-04T17:05:56.391Z,6.90
2022-11-04T17:08:26.313Z,6.20
2022-11-04T17:10:54.672Z,6.20
2022-11-04T17:13:22.940Z,5.80
2022-11-04T17:15:51.291Z,6.50
2022-11-04T17:18:19.752Z,6.70
2022-11-04T17:20:54.490Z,6.10
2022-11-04T17:23:23.677Z,5.20
2022-11-04T17:25:52.883Z,5.70
2022-11-04T17:28:21.253Z,5.40
2022-11-04T17:30:49.615Z,5.60
2022-11-04T17:33:19.441Z,5.40
2022-11-04T17:35:50.534Z,5.70
2022-11-04T17:38:19.508Z,6.20
2022-11-04T17:41:11.095Z,5.60
2022-11-04T17:43:58.634Z,5.90
2022-11-04T17:46:34.467Z,5.60
2022-11-04T17:49:13.198Z,6.40
2022-11-04T17:51:43.817Z,5.40
2022-11-04T17:54:12.835Z,6.10
2022-11-04T17:56:42.227Z,5.60
2022-11-04T17:59:12.388Z,5.80
2022-11-04T18:01:42.870Z,6.40
2022-11-04T18:04:16.877Z,5.70
2022-11-04T18:06:45.775Z,6.10
2022-11-04T18:09:15.844Z,6.10
2022-11-04T18:12:04.651Z,5.80
2022-11-04T18:14:33.274Z,6.80
2022-11-04T18:17:02.121Z,5.90
2022-11-04T18:19:30.808Z,6.80
2022-11-04T18:21:59.287Z,6.50
2022-11-04T18:24:27.903Z,6.20
2022-11-04T18:26:57.703Z,5.90
2022-11-04T18:29:25.969Z,6.80
2022-11-04T18:31:54.338Z,5.90
2022-11-04T18:34:23.022Z,6.40
2022-11-04T18:36:51.364Z,6.20
2022-11-04T18:39:19.791Z,6.10
2022-11-04T18:41:48.465Z,6.50
2022-11-04T18:44:19.717Z,5.90
2022-11-04T18:46:49.213Z,7.00
2022-11-04T18:49:18.314Z,7.40
2022-11-04T18:51:47.136Z,6.30
2022-11-04T18:54:15.580Z,6.30
2022-11-04T18:56:44.265Z,6.70
2022-11-04T18:59:14.726Z,6.30
2022-11-04T19:01:43.840Z,6.10
2022-11-04T19:04:13.214Z,6.00
2022-11-04T19:06:44.025Z,6.50
2022-11-04T19:12:22.037Z,6.40
2022-11-04T19:14:50.473Z,6.60
2022-11-04T19:17:18.908Z,6.40
2022-11-04T19:19:47.591Z,7.10
2022-11-04T19:22:15.937Z,6.90
2022-11-04T19:24:44.247Z,6.70
2022-11-04T19:27:12.537Z,6.20
2022-11-04T19:29:40.949Z,6.60
2022-11-04T19:32:13.766Z,6.60
2022-11-04T19:34:43.596Z,7.10
2022-11-04T19:37:12.969Z,7.20
2022-11-04T19:39:41.279Z,6.70
2022-11-04T19:42:30.876Z,7.50
2022-11-04T19:44:59.335Z,7.20
2022-11-04T19:47:27.742Z,7.00
2022-11-04T19:49:56.191Z,7.00
2022-11-04T19:52:24.506Z,7.50
2022-11-04T19:54:52.993Z,7.60
2022-11-04T19:57:21.568Z,6.60
2022-11-04T19:59:52.575Z,6.60
2022-11-04T20:02:21.858Z,6.10
2022-11-04T20:04:50.256Z,6.70
2022-11-04T20:07:18.832Z,7.40
2022-11-04T20:09:47.416Z,7.50
2022-11-04T20:12:34.377Z,7.30
2022-11-04T20:15:03.429Z,6.40
2022-11-04T20:17:33.071Z,6.70
2022-11-04T20:20:01.436Z,6.90
2022-11-04T20:22:29.784Z,7.40
2022-11-04T20:24:58.042Z,6.80
2022-11-04T20:27:26.543Z,6.70
2022-11-04T20:29:55.023Z,6.70
2022-11-04T20:32:23.402Z,6.10
2022-11-04T20:34:51.776Z,6.90
2022-11-04T20:37:20.670Z,7.30
2022-11-04T20:39:49.043Z,7.10
2022-11-04T20:42:17.418Z,6.80
2022-11-04T20:44:46.014Z,7.60
2022-11-04T20:47:16.012Z,8.00
2022-11-04T20:49:45.064Z,7.70
2022-11-04T20:52:13.706Z,7.70
2022-11-04T20:54:42.364Z,6.60
2022-11-04T20:57:10.654Z,6.70
2022-11-04T20:59:38.985Z,6.80
2022-11-04T21:02:10.712Z,7.00
2022-11-04T21:04:39.284Z,6.80
2022-11-04T21:07:07.818Z,6.60
2022-11-04T21:09:36.162Z,7.30
2022-11-04T21:12:05.151Z,7.50
2022-11-04T21:14:35.256Z,6.60
2022-11-04T21:17:05.677Z,7.00
2022-11-04T21:19:34.366Z,7.80
2022-11-04T21:22:02.645Z,8.00
2022-11-04T21:24:37.889Z,6.90
2022-11-04T21:27:07.797Z,7.10
2022-11-04T21:29:36.630Z,6.60
2022-11-04T21:32:05.579Z,6.30
2022-11-04T21:34:34.058Z,7.20
2022-11-04T21:37:02.308Z,6.70
2022-11-04T21:39:30.538Z,6.70
2022-11-04T21:41:59.329Z,6.80
2022-11-04T21:44:27.877Z,7.20
2022-11-04T21:46:56.257Z,6.30
2022-11-04T21:49:24.838Z,7.50
2022-11-04T21:51:53.017Z,7.20
2022-11-04T21:54:21.248Z,6.70
2022-11-04T21:56:50.793Z,6.20
2022-11-04T21:59:19.379Z,6.30
2022-11-04T22:01:47.991Z,5.90
2022-11-04T22:04:16.647Z,5.90
2022-11-04T22:06:45.640Z,7.20
2022-11-04T22:09:14.028Z,6.40
2022-11-04T22:11:42.633Z,6.50
2022-11-04T22:14:12.358Z,6.30
2022-11-04T22:16:40.789Z,6.70
2022-11-04T22:19:10.980Z,7.00
2022-11-04T22:21:41.521Z,6.40
2022-11-04T22:24:16.198Z,6.30
2022-11-04T22:26:45.055Z,6.30
2022-11-04T22:29:13.342Z,6.50
2022-11-04T22:31:42.808Z,6.20
2022-11-04T22:34:11.319Z,6.40
2022-11-04T22:36:40.002Z,5.70
2022-11-04T22:39:15.242Z,7.20
2022-11-04T22:41:46.637Z,6.70
2022-11-04T22:44:15.328Z,7.30
2022-11-04T22:46:43.819Z,6.40
2022-11-04T22:49:14.638Z,7.10
2022-11-04T22:51:43.237Z,6.50
2022-11-04T22:54:11.661Z,5.60
2022-11-04T22:56:40.263Z,6.20
2022-11-04T22:59:08.480Z,7.00
2022-11-04T23:01:37.280Z,6.80
2022-11-04T23:04:06.693Z,6.80
2022-11-04T23:06:34.979Z,7.40
2022-11-04T23:09:03.664Z,7.00
2022-11-04T23:11:51.806Z,6.50
2022-11-04T23:14:40.766Z,7.00
2022-11-04T23:17:34.033Z,7.30
2022-11-04T23:20:06.274Z,7.20
2022-11-04T23:22:53.210Z,6.60
2022-11-04T23:25:22.065Z,5.80
2022-11-04T23:28:11.568Z,6.60
2022-11-04T23:30:45.856Z,7.10
2022-11-04T23:33:15.493Z,6.80
2022-11-04T23:36:07.919Z,6.80
2022-11-04T23:38:36.421Z,6.10
2022-11-04T23:41:25.186Z,7.20
2022-11-04T23:43:53.760Z,6.00
2022-11-04T23:46:43.428Z,6.30
2022-11-04T23:49:30.997Z,6.60
2022-11-04T23:52:18.112Z,6.70
2022-11-04T23:55:05.210Z,6.00
2022-11-04T23:57:52.831Z,5.50
